Terminal Aerodrome Forecast
Issued by NWS

Home | Current Version | Previous Version | Text Only | Print | Product List | Glossary On
Versions: 1 2 3 4 5 6 7 8 9 10 11 12 13 14 15 16 17 18 19 20 21 22 23 24 25 26 27 28 29 30 31 32 33 34 35 36 37 38 39 40 41 42 43 44 45
688
FTUS46 KEKA 071506 AAB
TAFACV
TAF AMD
KACV 071506Z 0715/0812 00000KT P6SM SKC
     FM071800 32006KT 6SM HZ SKC
     FM080300 03003KT P6SM MIFG SKC
     FM081000 VRB03KT P6SM SKC=

USA.gov is the U.S. government's official web portal to all federal, state and local government web resources and services.